sensor_id;sensor_type;location;lat;lon;timestamp;P1;durP1;ratioP1;P2;durP2;ratioP2
80539;SDS011;69869;48.036;15.780;2024-03-02T00:00:01;10.30;;;8.93;;
80539;SDS011;69869;48.036;15.780;2024-03-02T00:02:40;12.15;;;9.75;;
80539;SDS011;69869;48.036;15.780;2024-03-02T00:05:06;10.43;;;8.80;;
80539;SDS011;69869;48.036;15.780;2024-03-02T00:07:32;9.77;;;8.60;;
80539;SDS011;69869;48.036;15.780;2024-03-02T00:09:58;10.80;;;8.90;;
80539;SDS011;69869;48.036;15.780;2024-03-02T00:12:24;9.48;;;8.45;;
80539;SDS011;69869;48.036;15.780;2024-03-02T00:14:50;10.77;;;9.43;;
80539;SDS011;69869;48.036;15.780;2024-03-02T00:17:21;9.82;;;8.75;;
80539;SDS011;69869;48.036;15.780;2024-03-02T00:19:50;10.77;;;8.90;;
80539;SDS011;69869;48.036;15.780;2024-03-02T00:22:17;10.60;;;9.07;;
80539;SDS011;69869;48.036;15.780;2024-03-02T00:24:43;9.48;;;8.57;;
80539;SDS011;69869;48.036;15.780;2024-03-02T00:27:08;9.23;;;8.23;;
80539;SDS011;69869;48.036;15.780;2024-03-02T00:29:39;9.43;;;8.43;;
80539;SDS011;69869;48.036;15.780;2024-03-02T00:32:12;9.18;;;8.18;;
80539;SDS011;69869;48.036;15.780;2024-03-02T00:34:40;11.23;;;8.70;;
80539;SDS011;69869;48.036;15.780;2024-03-02T00:37:06;9.38;;;8.18;;
80539;SDS011;69869;48.036;15.780;2024-03-02T00:39:32;9.63;;;8.43;;
80539;SDS011;69869;48.036;15.780;2024-03-02T00:41:58;9.13;;;7.63;;
80539;SDS011;69869;48.036;15.780;2024-03-02T00:44:25;9.85;;;8.13;;
80539;SDS011;69869;48.036;15.780;2024-03-02T00:46:59;8.95;;;7.90;;
80539;SDS011;69869;48.036;15.780;2024-03-02T00:49:25;8.55;;;7.68;;
80539;SDS011;69869;48.036;15.780;2024-03-02T00:51:52;10.57;;;8.82;;
80539;SDS011;69869;48.036;15.780;2024-03-02T00:54:22;10.52;;;8.20;;
80539;SDS011;69869;48.036;15.780;2024-03-02T00:56:51;9.05;;;8.15;;
80539;SDS011;69869;48.036;15.780;2024-03-02T00:59:19;10.40;;;8.63;;
80539;SDS011;69869;48.036;15.780;2024-03-02T01:01:45;8.95;;;8.05;;
80539;SDS011;69869;48.036;15.780;2024-03-02T01:04:12;9.10;;;8.13;;
80539;SDS011;69869;48.036;15.780;2024-03-02T01:06:39;9.13;;;8.23;;
80539;SDS011;69869;48.036;15.780;2024-03-02T01:09:04;9.43;;;8.43;;
80539;SDS011;69869;48.036;15.780;2024-03-02T01:11:30;9.60;;;8.35;;
80539;SDS011;69869;48.036;15.780;2024-03-02T01:13:56;10.15;;;8.30;;
80539;SDS011;69869;48.036;15.780;2024-03-02T01:16:22;9.88;;;8.02;;
80539;SDS011;69869;48.036;15.780;2024-03-02T01:18:48;9.23;;;7.88;;
80539;SDS011;69869;48.036;15.780;2024-03-02T01:21:14;8.68;;;7.57;;
80539;SDS011;69869;48.036;15.780;2024-03-02T01:23:40;9.35;;;7.65;;
80539;SDS011;69869;48.036;15.780;2024-03-02T01:26:05;8.80;;;7.75;;
80539;SDS011;69869;48.036;15.780;2024-03-02T01:28:32;9.20;;;7.50;;
80539;SDS011;69869;48.036;15.780;2024-03-02T01:30:57;7.95;;;7.15;;
80539;SDS011;69869;48.036;15.780;2024-03-02T01:33:23;8.00;;;7.25;;
80539;SDS011;69869;48.036;15.780;2024-03-02T01:35:49;8.02;;;7.22;;
80539;SDS011;69869;48.036;15.780;2024-03-02T01:38:14;8.02;;;7.22;;
80539;SDS011;69869;48.036;15.780;2024-03-02T01:40:40;7.82;;;6.95;;
80539;SDS011;69869;48.036;15.780;2024-03-02T01:43:07;7.18;;;6.47;;
80539;SDS011;69869;48.036;15.780;2024-03-02T01:45:33;7.57;;;6.88;;
80539;SDS011;69869;48.036;15.780;2024-03-02T01:48:00;8.27;;;7.38;;
80539;SDS011;69869;48.036;15.780;2024-03-02T01:50:32;7.32;;;6.63;;
80539;SDS011;69869;48.036;15.780;2024-03-02T01:52:59;7.63;;;6.82;;
80539;SDS011;69869;48.036;15.780;2024-03-02T01:55:28;7.63;;;6.82;;
80539;SDS011;69869;48.036;15.780;2024-03-02T01:57:58;8.55;;;7.25;;
80539;SDS011;69869;48.036;15.780;2024-03-02T02:00:23;7.95;;;6.57;;
80539;SDS011;69869;48.036;15.780;2024-03-02T02:02:51;7.15;;;6.45;;
80539;SDS011;69869;48.036;15.780;2024-03-02T02:05:17;7.60;;;6.47;;
80539;SDS011;69869;48.036;15.780;2024-03-02T02:07:43;7.65;;;6.88;;
80539;SDS011;69869;48.036;15.780;2024-03-02T02:10:12;7.35;;;6.60;;
80539;SDS011;69869;48.036;15.780;2024-03-02T02:12:38;6.97;;;6.35;;
80539;SDS011;69869;48.036;15.780;2024-03-02T02:17:48;7.28;;;6.45;;
80539;SDS011;69869;48.036;15.780;2024-03-02T02:20:14;7.05;;;6.30;;
80539;SDS011;69869;48.036;15.780;2024-03-02T02:22:40;7.57;;;6.55;;
80539;SDS011;69869;48.036;15.780;2024-03-02T02:25:05;6.70;;;6.07;;
80539;SDS011;69869;48.036;15.780;2024-03-02T02:27:31;7.13;;;6.43;;
80539;SDS011;69869;48.036;15.780;2024-03-02T02:29:57;6.57;;;5.97;;
80539;SDS011;69869;48.036;15.780;2024-03-02T02:32:22;6.78;;;6.07;;
80539;SDS011;69869;48.036;15.780;2024-03-02T02:34:52;6.40;;;5.80;;
80539;SDS011;69869;48.036;15.780;2024-03-02T02:37:17;6.68;;;6.03;;
80539;SDS011;69869;48.036;15.780;2024-03-02T02:39:43;6.80;;;6.10;;
80539;SDS011;69869;48.036;15.780;2024-03-02T02:42:09;6.32;;;5.72;;
80539;SDS011;69869;48.036;15.780;2024-03-02T02:44:34;6.10;;;5.50;;
80539;SDS011;69869;48.036;15.780;2024-03-02T02:47:00;6.28;;;5.65;;
80539;SDS011;69869;48.036;15.780;2024-03-02T02:49:25;6.38;;;5.78;;
80539;SDS011;69869;48.036;15.780;2024-03-02T02:51:51;6.75;;;6.05;;
80539;SDS011;69869;48.036;15.780;2024-03-02T02:54:17;7.03;;;6.32;;
80539;SDS011;69869;48.036;15.780;2024-03-02T02:56:43;6.88;;;6.18;;
80539;SDS011;69869;48.036;15.780;2024-03-02T02:59:08;6.50;;;5.90;;
80539;SDS011;69869;48.036;15.780;2024-03-02T03:01:34;5.80;;;5.30;;
80539;SDS011;69869;48.036;15.780;2024-03-02T03:03:59;5.97;;;5.47;;
80539;SDS011;69869;48.036;15.780;2024-03-02T03:06:25;5.90;;;5.35;;
80539;SDS011;69869;48.036;15.780;2024-03-02T03:08:51;6.03;;;5.53;;
80539;SDS011;69869;48.036;15.780;2024-03-02T03:11:16;5.85;;;5.30;;
80539;SDS011;69869;48.036;15.780;2024-03-02T03:13:42;6.10;;;5.50;;
80539;SDS011;69869;48.036;15.780;2024-03-02T03:16:07;5.95;;;5.35;;
80539;SDS011;69869;48.036;15.780;2024-03-02T03:18:33;5.90;;;5.40;;
80539;SDS011;69869;48.036;15.780;2024-03-02T03:20:59;6.28;;;5.68;;
80539;SDS011;69869;48.036;15.780;2024-03-02T03:23:24;6.10;;;5.50;;
80539;SDS011;69869;48.036;15.780;2024-03-02T03:25:51;6.53;;;5.28;;
80539;SDS011;69869;48.036;15.780;2024-03-02T03:28:16;6.57;;;5.88;;
80539;SDS011;69869;48.036;15.780;2024-03-02T03:30:42;5.30;;;4.82;;
80539;SDS011;69869;48.036;15.780;2024-03-02T03:33:08;5.90;;;5.30;;
80539;SDS011;69869;48.036;15.780;2024-03-02T03:35:34;5.55;;;5.03;;
80539;SDS011;69869;48.036;15.780;2024-03-02T03:38:00;5.50;;;5.00;;
80539;SDS011;69869;48.036;15.780;2024-03-02T03:40:25;5.70;;;5.20;;
80539;SDS011;69869;48.036;15.780;2024-03-02T03:42:51;8.07;;;5.22;;
80539;SDS011;69869;48.036;15.780;2024-03-02T03:45:17;7.38;;;5.22;;
80539;SDS011;69869;48.036;15.780;2024-03-02T03:47:42;5.85;;;5.25;;
80539;SDS011;69869;48.036;15.780;2024-03-02T03:50:08;5.65;;;5.15;;
80539;SDS011;69869;48.036;15.780;2024-03-02T03:52:34;5.45;;;4.95;;
80539;SDS011;69869;48.036;15.780;2024-03-02T03:55:00;5.43;;;4.88;;
80539;SDS011;69869;48.036;15.780;2024-03-02T03:57:26;5.75;;;5.20;;
80539;SDS011;69869;48.036;15.780;2024-03-02T03:59:52;5.30;;;4.85;;
80539;SDS011;69869;48.036;15.780;2024-03-02T04:02:18;5.25;;;4.75;;
80539;SDS011;69869;48.036;15.780;2024-03-02T04:04:44;5.22;;;4.72;;
80539;SDS011;69869;48.036;15.780;2024-03-02T04:07:10;5.63;;;5.13;;
80539;SDS011;69869;48.036;15.780;2024-03-02T04:09:35;5.55;;;5.00;;
80539;SDS011;69869;48.036;15.780;2024-03-02T04:12:01;4.90;;;4.50;;
80539;SDS011;69869;48.036;15.780;2024-03-02T04:14:27;5.03;;;4.53;;
80539;SDS011;69869;48.036;15.780;2024-03-02T04:16:52;5.72;;;5.15;;
80539;SDS011;69869;48.036;15.780;2024-03-02T04:19:18;5.25;;;4.75;;
80539;SDS011;69869;48.036;15.780;2024-03-02T04:21:43;5.07;;;4.65;;
80539;SDS011;69869;48.036;15.780;2024-03-02T04:24:09;4.60;;;4.20;;
80539;SDS011;69869;48.036;15.780;2024-03-02T04:26:35;5.57;;;5.07;;
80539;SDS011;69869;48.036;15.780;2024-03-02T04:29:00;4.88;;;4.47;;
80539;SDS011;69869;48.036;15.780;2024-03-02T04:31:26;4.95;;;4.55;;
80539;SDS011;69869;48.036;15.780;2024-03-02T04:33:52;5.28;;;4.82;;
80539;SDS011;69869;48.036;15.780;2024-03-02T04:36:19;5.05;;;4.65;;
80539;SDS011;69869;48.036;15.780;2024-03-02T04:38:44;4.90;;;4.50;;
80539;SDS011;69869;48.036;15.780;2024-03-02T04:41:10;4.63;;;4.22;;
80539;SDS011;69869;48.036;15.780;2024-03-02T04:43:36;4.78;;;4.38;;
80539;SDS011;69869;48.036;15.780;2024-03-02T04:46:01;5.20;;;4.70;;
80539;SDS011;69869;48.036;15.780;2024-03-02T04:48:27;5.22;;;4.72;;
80539;SDS011;69869;48.036;15.780;2024-03-02T04:50:53;4.95;;;4.55;;
80539;SDS011;69869;48.036;15.780;2024-03-02T04:53:18;5.00;;;4.43;;
80539;SDS011;69869;48.036;15.780;2024-03-02T04:55:44;4.93;;;4.53;;
80539;SDS011;69869;48.036;15.780;2024-03-02T04:58:19;4.97;;;4.53;;
80539;SDS011;69869;48.036;15.780;2024-03-02T05:00:45;4.57;;;4.28;;
80539;SDS011;69869;48.036;15.780;2024-03-02T05:03:11;4.97;;;4.57;;
80539;SDS011;69869;48.036;15.780;2024-03-02T05:05:38;4.38;;;3.97;;
80539;SDS011;69869;48.036;15.780;2024-03-02T05:08:04;4.88;;;4.47;;
80539;SDS011;69869;48.036;15.780;2024-03-02T05:10:29;4.80;;;4.40;;
80539;SDS011;69869;48.036;15.780;2024-03-02T05:12:55;4.65;;;4.25;;
80539;SDS011;69869;48.036;15.780;2024-03-02T05:15:24;4.47;;;4.07;;
80539;SDS011;69869;48.036;15.780;2024-03-02T05:17:51;4.15;;;3.85;;
80539;SDS011;69869;48.036;15.780;2024-03-02T05:20:17;4.97;;;4.57;;
80539;SDS011;69869;48.036;15.780;2024-03-02T05:22:42;4.75;;;4.30;;
80539;SDS011;69869;48.036;15.780;2024-03-02T05:25:08;4.70;;;4.30;;
80539;SDS011;69869;48.036;15.780;2024-03-02T05:27:37;4.28;;;3.95;;
80539;SDS011;69869;48.036;15.780;2024-03-02T05:30:02;4.93;;;4.43;;
80539;SDS011;69869;48.036;15.780;2024-03-02T05:32:31;4.32;;;3.92;;
80539;SDS011;69869;48.036;15.780;2024-03-02T05:34:57;4.40;;;4.00;;
80539;SDS011;69869;48.036;15.780;2024-03-02T05:37:22;4.10;;;3.80;;
80539;SDS011;69869;48.036;15.780;2024-03-02T05:39:48;4.18;;;3.78;;
80539;SDS011;69869;48.036;15.780;2024-03-02T05:42:13;4.20;;;3.83;;
80539;SDS011;69869;48.036;15.780;2024-03-02T05:44:39;4.25;;;3.88;;
80539;SDS011;69869;48.036;15.780;2024-03-02T05:47:05;4.25;;;3.95;;
80539;SDS011;69869;48.036;15.780;2024-03-02T05:49:33;4.00;;;3.70;;
80539;SDS011;69869;48.036;15.780;2024-03-02T05:51:59;4.43;;;4.05;;
80539;SDS011;69869;48.036;15.780;2024-03-02T05:54:25;4.25;;;3.95;;
80539;SDS011;69869;48.036;15.780;2024-03-02T05:56:50;4.07;;;3.78;;
80539;SDS011;69869;48.036;15.780;2024-03-02T05:59:16;4.00;;;3.70;;
80539;SDS011;69869;48.036;15.780;2024-03-02T06:01:42;3.95;;;3.65;;
80539;SDS011;69869;48.036;15.780;2024-03-02T06:04:09;4.10;;;3.80;;
80539;SDS011;69869;48.036;15.780;2024-03-02T06:06:38;3.70;;;3.40;;
80539;SDS011;69869;48.036;15.780;2024-03-02T06:09:04;4.00;;;3.70;;
80539;SDS011;69869;48.036;15.780;2024-03-02T06:11:32;3.30;;;3.10;;
80539;SDS011;69869;48.036;15.780;2024-03-02T06:14:07;4.43;;;3.63;;
80539;SDS011;69869;48.036;15.780;2024-03-02T06:16:34;3.63;;;3.33;;
80539;SDS011;69869;48.036;15.780;2024-03-02T06:19:00;3.97;;;3.60;;
80539;SDS011;69869;48.036;15.780;2024-03-02T06:21:26;3.70;;;3.40;;
80539;SDS011;69869;48.036;15.780;2024-03-02T06:23:52;3.50;;;3.20;;
80539;SDS011;69869;48.036;15.780;2024-03-02T06:26:18;3.70;;;3.40;;
80539;SDS011;69869;48.036;15.780;2024-03-02T06:28:44;3.85;;;3.28;;
80539;SDS011;69869;48.036;15.780;2024-03-02T06:31:10;3.85;;;3.55;;
80539;SDS011;69869;48.036;15.780;2024-03-02T06:33:36;3.50;;;3.20;;
80539;SDS011;69869;48.036;15.780;2024-03-02T06:36:02;3.38;;;3.17;;
80539;SDS011;69869;48.036;15.780;2024-03-02T06:38:28;3.28;;;3.03;;
80539;SDS011;69869;48.036;15.780;2024-03-02T06:40:54;3.95;;;3.63;;
80539;SDS011;69869;48.036;15.780;2024-03-02T06:43:22;4.15;;;3.75;;
80539;SDS011;69869;48.036;15.780;2024-03-02T06:45:48;3.65;;;3.35;;
80539;SDS011;69869;48.036;15.780;2024-03-02T06:48:17;3.78;;;3.47;;
80539;SDS011;69869;48.036;15.780;2024-03-02T06:50:46;3.55;;;3.25;;
80539;SDS011;69869;48.036;15.780;2024-03-02T06:53:15;3.58;;;3.28;;
80539;SDS011;69869;48.036;15.780;2024-03-02T06:55:45;3.38;;;3.10;;
80539;SDS011;69869;48.036;15.780;2024-03-02T06:58:14;3.90;;;3.60;;
80539;SDS011;69869;48.036;15.780;2024-03-02T07:00:41;3.65;;;3.30;;
80539;SDS011;69869;48.036;15.780;2024-03-02T07:03:07;3.55;;;3.25;;
80539;SDS011;69869;48.036;15.780;2024-03-02T07:05:33;3.45;;;3.17;;
80539;SDS011;69869;48.036;15.780;2024-03-02T07:07:59;3.83;;;3.45;;
80539;SDS011;69869;48.036;15.780;2024-03-02T07:10:26;3.80;;;3.50;;
80539;SDS011;69869;48.036;15.780;2024-03-02T07:12:52;3.50;;;3.20;;
80539;SDS011;69869;48.036;15.780;2024-03-02T07:15:17;4.63;;;3.80;;
80539;SDS011;69869;48.036;15.780;2024-03-02T07:17:52;3.50;;;3.28;;
80539;SDS011;69869;48.036;15.780;2024-03-02T07:20:17;3.30;;;3.00;;
80539;SDS011;69869;48.036;15.780;2024-03-02T07:22:43;4.22;;;3.50;;
80539;SDS011;69869;48.036;15.780;2024-03-02T07:25:09;3.63;;;3.33;;
80539;SDS011;69869;48.036;15.780;2024-03-02T07:27:34;3.47;;;3.17;;
80539;SDS011;69869;48.036;15.780;2024-03-02T07:30:01;3.47;;;3.17;;
80539;SDS011;69869;48.036;15.780;2024-03-02T07:32:27;3.50;;;3.20;;
80539;SDS011;69869;48.036;15.780;2024-03-02T07:34:53;3.63;;;3.33;;
80539;SDS011;69869;48.036;15.780;2024-03-02T07:37:18;3.72;;;3.30;;
80539;SDS011;69869;48.036;15.780;2024-03-02T07:39:45;4.20;;;3.42;;
80539;SDS011;69869;48.036;15.780;2024-03-02T07:42:11;3.33;;;3.10;;
80539;SDS011;69869;48.036;15.780;2024-03-02T07:44:36;3.15;;;2.95;;
80539;SDS011;69869;48.036;15.780;2024-03-02T07:47:02;3.35;;;2.97;;
80539;SDS011;69869;48.036;15.780;2024-03-02T07:49:28;3.63;;;3.33;;
80539;SDS011;69869;48.036;15.780;2024-03-02T07:51:54;5.47;;;3.20;;
80539;SDS011;69869;48.036;15.780;2024-03-02T07:54:20;3.20;;;2.92;;
80539;SDS011;69869;48.036;15.780;2024-03-02T07:56:46;3.25;;;2.95;;
80539;SDS011;69869;48.036;15.780;2024-03-02T07:59:12;3.25;;;2.95;;
80539;SDS011;69869;48.036;15.780;2024-03-02T08:01:38;3.08;;;2.80;;
80539;SDS011;69869;48.036;15.780;2024-03-02T08:04:03;3.78;;;2.92;;
80539;SDS011;69869;48.036;15.780;2024-03-02T08:06:29;4.15;;;3.00;;
80539;SDS011;69869;48.036;15.780;2024-03-02T08:08:56;3.05;;;2.78;;
80539;SDS011;69869;48.036;15.780;2024-03-02T08:11:22;3.10;;;2.90;;
80539;SDS011;69869;48.036;15.780;2024-03-02T08:13:48;3.08;;;2.80;;
80539;SDS011;69869;48.036;15.780;2024-03-02T08:16:17;3.05;;;2.83;;
80539;SDS011;69869;48.036;15.780;2024-03-02T08:18:47;3.13;;;2.80;;
80539;SDS011;69869;48.036;15.780;2024-03-02T08:21:13;2.80;;;2.60;;
80539;SDS011;69869;48.036;15.780;2024-03-02T08:23:39;3.10;;;2.80;;
80539;SDS011;69869;48.036;15.780;2024-03-02T08:26:07;3.05;;;2.75;;
80539;SDS011;69869;48.036;15.780;2024-03-02T08:28:33;2.67;;;2.47;;
80539;SDS011;69869;48.036;15.780;2024-03-02T08:30:59;3.25;;;3.00;;
80539;SDS011;69869;48.036;15.780;2024-03-02T08:33:25;2.50;;;2.30;;
80539;SDS011;69869;48.036;15.780;2024-03-02T08:35:51;2.50;;;2.30;;
80539;SDS011;69869;48.036;15.780;2024-03-02T08:38:17;2.55;;;2.40;;
80539;SDS011;69869;48.036;15.780;2024-03-02T08:40:43;2.75;;;2.55;;
80539;SDS011;69869;48.036;15.780;2024-03-02T08:43:09;2.75;;;2.55;;
80539;SDS011;69869;48.036;15.780;2024-03-02T08:45:35;3.55;;;2.90;;
80539;SDS011;69869;48.036;15.780;2024-03-02T08:48:00;3.00;;;2.80;;
80539;SDS011;69869;48.036;15.780;2024-03-02T08:50:26;2.85;;;2.65;;
80539;SDS011;69869;48.036;15.780;2024-03-02T08:52:52;2.60;;;2.40;;
80539;SDS011;69869;48.036;15.780;2024-03-02T08:55:17;2.70;;;2.50;;
80539;SDS011;69869;48.036;15.780;2024-03-02T08:57:43;2.70;;;2.50;;
80539;SDS011;69869;48.036;15.780;2024-03-02T09:00:09;2.65;;;2.45;;
80539;SDS011;69869;48.036;15.780;2024-03-02T09:02:35;2.65;;;2.45;;
80539;SDS011;69869;48.036;15.780;2024-03-02T09:05:01;2.70;;;2.50;;
80539;SDS011;69869;48.036;15.780;2024-03-02T09:07:26;2.90;;;2.70;;
80539;SDS011;69869;48.036;15.780;2024-03-02T09:09:52;2.25;;;2.13;;
80539;SDS011;69869;48.036;15.780;2024-03-02T09:12:18;2.65;;;2.45;;
80539;SDS011;69869;48.036;15.780;2024-03-02T09:14:44;2.60;;;2.40;;
80539;SDS011;69869;48.036;15.780;2024-03-02T09:17:10;2.72;;;2.53;;
80539;SDS011;69869;48.036;15.780;2024-03-02T09:19:36;2.83;;;2.55;;
80539;SDS011;69869;48.036;15.780;2024-03-02T09:22:03;2.60;;;2.40;;
80539;SDS011;69869;48.036;15.780;2024-03-02T09:24:30;2.47;;;2.28;;
80539;SDS011;69869;48.036;15.780;2024-03-02T09:26:59;2.70;;;2.50;;
80539;SDS011;69869;48.036;15.780;2024-03-02T09:29:25;2.65;;;2.45;;
80539;SDS011;69869;48.036;15.780;2024-03-02T09:31:51;2.50;;;2.30;;
80539;SDS011;69869;48.036;15.780;2024-03-02T09:34:17;3.67;;;2.30;;
80539;SDS011;69869;48.036;15.780;2024-03-02T09:36:42;3.03;;;2.83;;
80539;SDS011;69869;48.036;15.780;2024-03-02T09:39:08;3.17;;;2.80;;
80539;SDS011;69869;48.036;15.780;2024-03-02T09:41:35;2.50;;;2.30;;
80539;SDS011;69869;48.036;15.780;2024-03-02T09:44:02;2.70;;;2.50;;
80539;SDS011;69869;48.036;15.780;2024-03-02T09:46:28;3.60;;;2.33;;
80539;SDS011;69869;48.036;15.780;2024-03-02T09:48:54;2.50;;;2.30;;
80539;SDS011;69869;48.036;15.780;2024-03-02T09:51:19;2.53;;;2.33;;
80539;SDS011;69869;48.036;15.780;2024-03-02T09:53:45;2.45;;;2.25;;
80539;SDS011;69869;48.036;15.780;2024-03-02T09:56:12;2.80;;;2.60;;
80539;SDS011;69869;48.036;15.780;2024-03-02T09:58:38;2.60;;;2.40;;
80539;SDS011;69869;48.036;15.780;2024-03-02T10:01:07;2.90;;;2.70;;
80539;SDS011;69869;48.036;15.780;2024-03-02T10:03:35;2.47;;;2.28;;
80539;SDS011;69869;48.036;15.780;2024-03-02T10:06:21;2.80;;;2.60;;
80539;SDS011;69869;48.036;15.780;2024-03-02T10:08:48;3.10;;;2.80;;
80539;SDS011;69869;48.036;15.780;2024-03-02T10:14:11;2.60;;;2.40;;
80539;SDS011;69869;48.036;15.780;2024-03-02T10:19:19;2.78;;;2.58;;
80539;SDS011;69869;48.036;15.780;2024-03-02T10:21:47;2.97;;;2.58;;
80539;SDS011;69869;48.036;15.780;2024-03-02T10:24:14;2.80;;;2.60;;
80539;SDS011;69869;48.036;15.780;2024-03-02T10:26:40;2.80;;;2.60;;
80539;SDS011;69869;48.036;15.780;2024-03-02T10:29:07;2.67;;;2.47;;
80539;SDS011;69869;48.036;15.780;2024-03-02T10:31:35;2.75;;;2.55;;
80539;SDS011;69869;48.036;15.780;2024-03-02T10:34:02;2.70;;;2.50;;
80539;SDS011;69869;48.036;15.780;2024-03-02T10:36:28;2.70;;;2.50;;
80539;SDS011;69869;48.036;15.780;2024-03-02T10:38:56;2.78;;;2.58;;
80539;SDS011;69869;48.036;15.780;2024-03-02T10:41:24;2.90;;;2.70;;
80539;SDS011;69869;48.036;15.780;2024-03-02T10:43:54;2.78;;;2.58;;
80539;SDS011;69869;48.036;15.780;2024-03-02T10:46:26;2.70;;;2.50;;
80539;SDS011;69869;48.036;15.780;2024-03-02T10:48:57;2.80;;;2.60;;
80539;SDS011;69869;48.036;15.780;2024-03-02T10:51:26;2.60;;;2.40;;
80539;SDS011;69869;48.036;15.780;2024-03-02T10:53:56;2.50;;;2.30;;
80539;SDS011;69869;48.036;15.780;2024-03-02T10:56:27;2.65;;;2.45;;
80539;SDS011;69869;48.036;15.780;2024-03-02T10:59:37;2.50;;;2.30;;
80539;SDS011;69869;48.036;15.780;2024-03-02T11:02:04;2.40;;;2.30;;
80539;SDS011;69869;48.036;15.780;2024-03-02T11:04:33;2.70;;;2.50;;
80539;SDS011;69869;48.036;15.780;2024-03-02T11:07:02;2.70;;;2.50;;
80539;SDS011;69869;48.036;15.780;2024-03-02T11:09:29;3.08;;;2.83;;
80539;SDS011;69869;48.036;15.780;2024-03-02T11:14:48;2.83;;;2.63;;
80539;SDS011;69869;48.036;15.780;2024-03-02T11:17:17;2.80;;;2.60;;
80539;SDS011;69869;48.036;15.780;2024-03-02T11:19:43;3.63;;;3.03;;
80539;SDS011;69869;48.036;15.780;2024-03-02T11:22:13;2.80;;;2.60;;
80539;SDS011;69869;48.036;15.780;2024-03-02T11:24:47;2.55;;;2.35;;
80539;SDS011;69869;48.036;15.780;2024-03-02T11:27:58;3.28;;;2.80;;
80539;SDS011;69869;48.036;15.780;2024-03-02T11:30:56;2.90;;;2.70;;
80539;SDS011;69869;48.036;15.780;2024-03-02T11:32:56;3.70;;;2.80;;
80539;SDS011;69869;48.036;15.780;2024-03-02T11:35:35;2.97;;;2.63;;
80539;SDS011;69869;48.036;15.780;2024-03-02T11:38:02;3.60;;;3.30;;
80539;SDS011;69869;48.036;15.780;2024-03-02T11:40:28;3.10;;;2.80;;
80539;SDS011;69869;48.036;15.780;2024-03-02T11:42:55;3.17;;;2.88;;
80539;SDS011;69869;48.036;15.780;2024-03-02T11:45:25;2.92;;;2.70;;
80539;SDS011;69869;48.036;15.780;2024-03-02T11:47:53;3.25;;;3.00;;
80539;SDS011;69869;48.036;15.780;2024-03-02T11:53:02;3.17;;;2.88;;
80539;SDS011;69869;48.036;15.780;2024-03-02T11:55:31;3.22;;;3.00;;
80539;SDS011;69869;48.036;15.780;2024-03-02T11:58:01;3.17;;;2.88;;
80539;SDS011;69869;48.036;15.780;2024-03-02T12:00:27;3.40;;;3.10;;
80539;SDS011;69869;48.036;15.780;2024-03-02T12:03:00;3.50;;;3.05;;
80539;SDS011;69869;48.036;15.780;2024-03-02T12:05:29;3.35;;;3.05;;
80539;SDS011;69869;48.036;15.780;2024-03-02T12:08:00;3.83;;;3.53;;
80539;SDS011;69869;48.036;15.780;2024-03-02T12:10:27;3.70;;;3.40;;
80539;SDS011;69869;48.036;15.780;2024-03-02T12:12:56;2.97;;;2.67;;
80539;SDS011;69869;48.036;15.780;2024-03-02T12:15:23;3.30;;;3.00;;
80539;SDS011;69869;48.036;15.780;2024-03-02T12:17:57;4.15;;;3.78;;
80539;SDS011;69869;48.036;15.780;2024-03-02T12:20:24;4.20;;;3.70;;
80539;SDS011;69869;48.036;15.780;2024-03-02T12:22:55;4.00;;;3.60;;
80539;SDS011;69869;48.036;15.780;2024-03-02T12:25:23;4.53;;;3.95;;
80539;SDS011;69869;48.036;15.780;2024-03-02T12:27:54;4.38;;;3.90;;
80539;SDS011;69869;48.036;15.780;2024-03-02T12:30:21;3.90;;;3.60;;
80539;SDS011;69869;48.036;15.780;2024-03-02T12:32:48;4.55;;;4.15;;
80539;SDS011;69869;48.036;15.780;2024-03-02T12:35:14;5.35;;;4.30;;
80539;SDS011;69869;48.036;15.780;2024-03-02T12:37:58;5.32;;;4.15;;
80539;SDS011;69869;48.036;15.780;2024-03-02T12:40:23;4.90;;;4.20;;
80539;SDS011;69869;48.036;15.780;2024-03-02T12:42:49;5.18;;;4.68;;
80539;SDS011;69869;48.036;15.780;2024-03-02T12:45:16;6.07;;;5.05;;
80539;SDS011;69869;48.036;15.780;2024-03-02T12:47:48;6.53;;;4.45;;
80539;SDS011;69869;48.036;15.780;2024-03-02T12:50:14;7.10;;;4.88;;
80539;SDS011;69869;48.036;15.780;2024-03-02T12:52:40;6.28;;;4.47;;
80539;SDS011;69869;48.036;15.780;2024-03-02T12:55:06;6.00;;;4.70;;
80539;SDS011;69869;48.036;15.780;2024-03-02T12:57:32;5.50;;;4.40;;
80539;SDS011;69869;48.036;15.780;2024-03-02T13:02:28;5.05;;;4.40;;
80539;SDS011;69869;48.036;15.780;2024-03-02T13:04:54;4.95;;;4.45;;
80539;SDS011;69869;48.036;15.780;2024-03-02T13:07:20;5.85;;;4.35;;
80539;SDS011;69869;48.036;15.780;2024-03-02T13:09:50;6.05;;;4.93;;
80539;SDS011;69869;48.036;15.780;2024-03-02T13:12:16;5.25;;;4.70;;
80539;SDS011;69869;48.036;15.780;2024-03-02T13:14:42;5.50;;;4.90;;
80539;SDS011;69869;48.036;15.780;2024-03-02T13:17:08;4.40;;;4.00;;
80539;SDS011;69869;48.036;15.780;2024-03-02T13:19:34;5.22;;;4.72;;
80539;SDS011;69869;48.036;15.780;2024-03-02T13:22:00;6.95;;;4.70;;
80539;SDS011;69869;48.036;15.780;2024-03-02T13:24:29;4.93;;;4.43;;
80539;SDS011;69869;48.036;15.780;2024-03-02T13:26:55;5.47;;;4.97;;
80539;SDS011;69869;48.036;15.780;2024-03-02T13:29:23;4.88;;;4.47;;
80539;SDS011;69869;48.036;15.780;2024-03-02T13:31:49;5.72;;;5.00;;
80539;SDS011;69869;48.036;15.780;2024-03-02T13:34:15;4.93;;;4.43;;
80539;SDS011;69869;48.036;15.780;2024-03-02T13:36:41;6.15;;;4.80;;
80539;SDS011;69869;48.036;15.780;2024-03-02T13:39:06;5.70;;;5.10;;
80539;SDS011;69869;48.036;15.780;2024-03-02T13:41:35;5.63;;;5.03;;
80539;SDS011;69869;48.036;15.780;2024-03-02T13:44:01;5.53;;;4.97;;
80539;SDS011;69869;48.036;15.780;2024-03-02T13:46:28;5.63;;;4.95;;
80539;SDS011;69869;48.036;15.780;2024-03-02T13:48:54;7.82;;;5.70;;
80539;SDS011;69869;48.036;15.780;2024-03-02T13:51:20;6.72;;;5.35;;
80539;SDS011;69869;48.036;15.780;2024-03-02T13:53:46;5.35;;;4.85;;
80539;SDS011;69869;48.036;15.780;2024-03-02T13:56:12;7.50;;;5.90;;
80539;SDS011;69869;48.036;15.780;2024-03-02T13:58:38;5.85;;;5.25;;
80539;SDS011;69869;48.036;15.780;2024-03-02T14:01:04;6.43;;;5.72;;
80539;SDS011;69869;48.036;15.780;2024-03-02T14:03:30;6.45;;;5.30;;
80539;SDS011;69869;48.036;15.780;2024-03-02T14:05:56;6.20;;;5.57;;
80539;SDS011;69869;48.036;15.780;2024-03-02T14:08:22;6.55;;;5.75;;
80539;SDS011;69869;48.036;15.780;2024-03-02T14:10:50;7.63;;;5.90;;
80539;SDS011;69869;48.036;15.780;2024-03-02T14:13:16;6.45;;;5.70;;
80539;SDS011;69869;48.036;15.780;2024-03-02T14:15:42;6.88;;;5.95;;
80539;SDS011;69869;48.036;15.780;2024-03-02T14:18:07;6.95;;;6.00;;
80539;SDS011;69869;48.036;15.780;2024-03-02T14:20:36;7.57;;;6.30;;
80539;SDS011;69869;48.036;15.780;2024-03-02T14:23:02;6.82;;;5.80;;
80539;SDS011;69869;48.036;15.780;2024-03-02T14:25:29;8.10;;;6.50;;
80539;SDS011;69869;48.036;15.780;2024-03-02T14:27:58;8.20;;;6.38;;
80539;SDS011;69869;48.036;15.780;2024-03-02T14:30:24;7.00;;;6.30;;
80539;SDS011;69869;48.036;15.780;2024-03-02T14:32:49;7.40;;;6.07;;
80539;SDS011;69869;48.036;15.780;2024-03-02T14:35:16;7.07;;;6.38;;
80539;SDS011;69869;48.036;15.780;2024-03-02T14:37:41;7.95;;;6.65;;
80539;SDS011;69869;48.036;15.780;2024-03-02T14:40:07;8.73;;;6.90;;
80539;SDS011;69869;48.036;15.780;2024-03-02T14:42:34;7.50;;;6.72;;
80539;SDS011;69869;48.036;15.780;2024-03-02T14:45:00;7.72;;;6.47;;
80539;SDS011;69869;48.036;15.780;2024-03-02T14:47:28;8.55;;;7.00;;